Terminal Aerodrome Forecast
Issued by NWS Charleston, WV

Current Version | Previous Version | Graphics & Text | Print | Product List | Glossary On
Versions: 1 2 3 4 5 6 7 8 9 10 11 12 13 14 15 16 17 18 19 20 21 22 23 24 25 26 27 28
900
FTUS41 KRLX 270236 AAB
TAFCRW
TAF AMD
KCRW 270236Z 2703/2724 22004KT P6SM -SHRA VCTS SCT025 OVC050CB
      TEMPO 2703/2704 3SM SHRA BR BKN025
     FM270400 VRB02KT 4SM BR SCT025 OVC045
      TEMPO 2704/2706 -SHRA
     FM270600 20003KT P6SM SCT025 BKN045
     FM270900 17002KT P6SM BKN025
     FM271400 19007KT P6SM BKN040=

USA.gov is the U.S. government's official web portal to all federal, state and local government web resources and services.